createdAt,value
2023-05-08T00:00:27.534Z,152193.50
2023-05-08T00:02:53.492Z,152190.97
2023-05-08T00:05:19.584Z,152207.47
2023-05-08T00:07:45.472Z,152193.50
2023-05-08T00:10:11.994Z,152217.66
2023-05-08T00:12:38.215Z,152188.44
2023-05-08T00:15:04.963Z,152192.25
2023-05-08T00:17:31.485Z,152192.25
2023-05-08T00:19:57.290Z,152174.47
2023-05-08T00:22:23.155Z,152202.41
2023-05-08T00:24:49.132Z,152192.25
2023-05-08T00:27:15.042Z,152182.13
2023-05-08T00:29:41.201Z,152182.13
2023-05-08T00:32:07.443Z,152142.75
2023-05-08T00:34:33.478Z,152173.22
2023-05-08T00:36:59.424Z,152188.44
2023-05-08T00:39:25.328Z,152160.50
2023-05-08T00:41:51.310Z,152141.50
2023-05-08T00:44:17.274Z,152156.72
2023-05-08T00:46:44.218Z,152159.25
2023-05-08T00:49:12.489Z,152160.50
2023-05-08T00:51:44.051Z,152146.59
2023-05-08T00:54:10.722Z,152132.63
2023-05-08T00:56:37.826Z,152146.59
2023-05-08T00:59:09.217Z,152140.22
2023-05-08T01:01:40.143Z,152126.31
2023-05-08T01:04:06.719Z,152131.38
2023-05-08T01:06:38.982Z,152141.50
2023-05-08T01:09:04.870Z,152154.19
2023-05-08T01:11:37.725Z,152107.22
2023-05-08T01:14:35.446Z,152099.66
2023-05-08T01:17:07.269Z,152100.91
2023-05-08T01:20:01.700Z,152109.81
2023-05-08T01:23:02.690Z,152053.97
2023-05-08T01:26:06.674Z,152078.03
2023-05-08T01:28:51.421Z,152052.66
2023-05-08T01:31:35.712Z,152031.09
2023-05-08T01:34:23.662Z,152003.22
2023-05-08T01:37:12.259Z,151980.38
2023-05-08T01:39:50.609Z,151995.59
2023-05-08T01:42:32.837Z,151976.59
2023-05-08T01:45:15.119Z,151971.53
2023-05-08T01:47:43.476Z,151994.34
2023-05-08T01:50:18.724Z,152017.16
2023-05-08T01:53:07.922Z,152004.50
2023-05-08T01:55:36.786Z,152031.09
2023-05-08T01:58:07.056Z,152034.91
2023-05-08T02:00:33.009Z,152047.59
2023-05-08T02:03:00.093Z,152024.78
2023-05-08T02:05:27.322Z,152047.59
2023-05-08T02:07:54.653Z,152051.38
2023-05-08T02:10:24.514Z,152012.09
2023-05-08T02:12:51.600Z,151965.19
2023-05-08T02:15:18.305Z,151955.03
2023-05-08T02:17:47.962Z,151962.63
2023-05-08T02:20:15.411Z,151942.34
2023-05-08T02:22:44.036Z,151905.59
2023-05-08T02:25:13.867Z,151909.38
2023-05-08T02:27:44.835Z,151924.59
2023-05-08T02:30:14.509Z,151891.69
2023-05-08T02:32:43.152Z,151922.06
2023-05-08T02:35:12.972Z,151930.97
2023-05-08T02:37:41.932Z,151936.03
2023-05-08T02:40:10.684Z,151908.13
2023-05-08T02:42:37.099Z,151894.22
2023-05-08T02:45:04.107Z,151891.69
2023-05-08T02:47:46.784Z,151867.56
2023-05-08T02:50:19.815Z,151871.34
2023-05-08T02:52:50.379Z,151867.56
2023-05-08T02:55:28.080Z,151866.31
2023-05-08T02:58:07.291Z,151843.50
2023-05-08T03:00:44.350Z,151843.50
2023-05-08T03:03:23.729Z,151823.22
2023-05-08T03:05:59.042Z,151835.88
2023-05-08T03:08:33.912Z,151814.31
2023-05-08T03:11:04.930Z,151828.28
2023-05-08T03:13:33.795Z,151852.34
2023-05-08T03:16:01.568Z,151861.25
2023-05-08T03:18:42.234Z,151849.81
2023-05-08T03:21:10.495Z,151853.59
2023-05-08T03:23:38.515Z,151867.56
2023-05-08T03:26:05.876Z,151865.03
2023-05-08T03:28:32.313Z,151880.25
2023-05-08T03:31:00.050Z,151838.44
2023-05-08T03:33:28.223Z,151819.38
2023-05-08T03:35:55.576Z,151861.25
2023-05-08T03:38:23.675Z,151830.81
2023-05-08T03:40:49.721Z,151829.53
2023-05-08T03:43:16.846Z,151825.75
2023-05-08T03:45:44.146Z,151824.50
2023-05-08T03:48:10.430Z,151834.59
2023-05-08T03:50:37.205Z,151861.25
2023-05-08T03:53:03.257Z,151814.31
2023-05-08T03:55:32.547Z,151797.84
2023-05-08T03:58:17.826Z,151795.31
2023-05-08T04:01:17.881Z,151780.09
2023-05-08T04:04:02.227Z,151819.38
2023-05-08T04:06:45.853Z,151801.69
2023-05-08T04:09:33.784Z,151799.13
2023-05-08T04:12:11.702Z,151780.09
2023-05-08T04:14:44.701Z,151762.38
2023-05-08T04:17:14.874Z,151721.78
2023-05-08T04:19:46.025Z,151730.69
2023-05-08T04:22:12.472Z,151768.72
2023-05-08T04:24:45.070Z,151782.63
2023-05-08T04:27:12.437Z,151776.31
2023-05-08T04:29:38.822Z,151789.00
2023-05-08T04:32:05.775Z,151791.53
2023-05-08T04:34:31.830Z,151795.31
2023-05-08T04:36:57.811Z,151813.06
2023-05-08T04:39:23.733Z,151825.75
2023-05-08T04:41:51.759Z,151828.28
2023-05-08T04:44:17.820Z,151818.13
2023-05-08T04:46:43.747Z,151848.56
2023-05-08T04:49:09.619Z,151840.97
2023-05-08T04:51:35.595Z,151833.34
2023-05-08T04:54:01.421Z,151840.97
2023-05-08T04:56:27.343Z,151834.59
2023-05-08T04:58:53.359Z,151828.28
2023-05-08T05:01:19.195Z,151789.00
2023-05-08T05:03:45.068Z,151799.13
2023-05-08T05:06:11.420Z,151748.47
2023-05-08T05:08:37.295Z,151768.72
2023-05-08T05:11:03.114Z,151720.53
2023-05-08T05:13:29.000Z,151733.22
2023-05-08T05:15:56.200Z,151710.38
2023-05-08T05:18:23.404Z,151697.72
2023-05-08T05:20:49.231Z,151716.72
2023-05-08T05:23:15.047Z,151752.25
2023-05-08T05:25:41.039Z,151763.63
2023-05-08T05:28:06.874Z,151792.78
2023-05-08T05:30:32.980Z,151790.25
2023-05-08T05:32:59.197Z,151818.13
2023-05-08T05:35:25.749Z,151801.69
2023-05-08T05:37:51.725Z,151787.75
2023-05-08T05:40:17.500Z,151819.38
2023-05-08T05:42:49.153Z,151813.06
2023-05-08T05:45:15.294Z,151853.59
2023-05-08T05:47:46.149Z,151856.19
2023-05-08T05:50:12.321Z,151854.88
2023-05-08T05:52:38.249Z,151892.94
2023-05-08T05:55:04.591Z,151853.59
2023-05-08T05:57:30.354Z,151886.56
2023-05-08T05:59:56.140Z,151886.56
2023-05-08T06:02:22.064Z,151905.59
2023-05-08T06:04:49.355Z,151865.03
2023-05-08T06:07:15.411Z,151866.31
2023-05-08T06:09:41.204Z,151915.75
2023-05-08T06:12:07.513Z,151933.50
2023-05-08T06:14:33.605Z,151924.59
2023-05-08T06:16:59.471Z,151939.81
2023-05-08T06:19:25.522Z,151929.69
2023-05-08T06:21:51.502Z,151894.22
2023-05-08T06:24:17.432Z,151933.50
2023-05-08T06:26:43.210Z,151929.69
2023-05-08T06:29:08.979Z,151894.22
2023-05-08T06:31:34.796Z,151928.44
2023-05-08T06:34:00.654Z,151891.69
2023-05-08T06:36:26.542Z,151844.75
2023-05-08T06:38:52.375Z,151843.50
2023-05-08T06:41:18.188Z,151886.56
2023-05-08T06:43:46.614Z,151910.69
2023-05-08T06:46:12.619Z,151882.78
2023-05-08T06:48:38.450Z,151923.34
2023-05-08T06:51:04.350Z,151951.25
2023-05-08T06:53:30.481Z,151944.88
2023-05-08T06:55:59.102Z,151979.13
2023-05-08T06:58:25.148Z,151998.13
2023-05-08T07:00:50.978Z,151999.38
2023-05-08T07:03:16.766Z,151994.34
2023-05-08T07:05:42.563Z,151989.28
2023-05-08T07:08:08.377Z,151971.53
2023-05-08T07:10:34.655Z,151965.19
2023-05-08T07:13:00.953Z,151970.25
2023-05-08T07:15:27.267Z,152031.09
2023-05-08T07:17:53.253Z,152056.50
2023-05-08T07:20:19.639Z,152064.09
2023-05-08T07:22:45.898Z,152060.28
2023-05-08T07:25:12.209Z,152070.41
2023-05-08T07:27:38.186Z,152019.72
2023-05-08T07:30:04.761Z,152033.63
2023-05-08T07:32:31.024Z,152066.63
2023-05-08T07:34:56.869Z,152072.97
2023-05-08T07:37:22.819Z,152084.38
2023-05-08T07:39:48.926Z,152099.66
2023-05-08T07:42:14.762Z,152074.25
2023-05-08T07:44:47.204Z,152084.38
2023-05-08T07:47:19.294Z,152127.56
2023-05-08T07:49:45.124Z,152113.63
2023-05-08T07:52:10.905Z,152102.19
2023-05-08T07:54:36.723Z,152142.75
2023-05-08T07:57:02.569Z,152154.19
2023-05-08T07:59:28.450Z,152119.94
2023-05-08T08:01:54.608Z,152138.97
2023-05-08T08:04:20.440Z,152104.72
2023-05-08T08:06:46.393Z,152117.41
2023-05-08T08:09:12.149Z,152092.00
2023-05-08T08:11:37.940Z,152041.28
2023-05-08T08:14:03.709Z,152056.50
2023-05-08T08:16:29.644Z,152041.28
2023-05-08T08:18:55.678Z,151998.13
2023-05-08T08:21:21.514Z,152059.03
2023-05-08T08:23:47.356Z,152052.66
2023-05-08T08:26:13.179Z,152043.81
2023-05-08T08:28:39.121Z,152064.09
2023-05-08T08:31:05.013Z,152053.97
2023-05-08T08:33:30.898Z,152043.81
2023-05-08T08:35:56.715Z,152074.25
2023-05-08T08:38:23.504Z,152070.41
2023-05-08T08:40:49.553Z,152061.56
2023-05-08T08:43:15.445Z,152066.63
2023-05-08T08:45:41.359Z,152055.22
2023-05-08T08:48:13.689Z,152060.28
2023-05-08T08:50:43.470Z,152033.63
2023-05-08T08:53:23.785Z,152043.81
2023-05-08T08:55:53.069Z,152033.63
2023-05-08T08:58:30.659Z,152022.25
2023-05-08T09:00:58.924Z,152048.84
2023-05-08T09:03:24.999Z,152059.03
2023-05-08T09:05:51.158Z,152037.47
2023-05-08T09:08:18.016Z,152027.31
2023-05-08T09:10:43.833Z,152065.34
2023-05-08T09:13:09.941Z,152008.28
2023-05-08T09:15:35.757Z,151990.53
2023-05-08T09:18:02.007Z,152022.25
2023-05-08T09:20:28.360Z,152046.31
2023-05-08T09:22:55.128Z,152014.63
2023-05-08T09:25:21.155Z,152028.56
2023-05-08T09:27:47.056Z,151980.38
2023-05-08T09:30:16.097Z,152026.03
2023-05-08T09:32:44.249Z,152059.03
2023-05-08T09:35:11.530Z,152098.38
2023-05-08T09:37:39.819Z,152125.00
2023-05-08T09:40:20.135Z,152159.25
2023-05-08T09:42:48.357Z,152207.47
2023-05-08T09:45:28.930Z,152145.34
2023-05-08T09:47:55.211Z,152151.66
2023-05-08T09:50:21.079Z,152165.63
2023-05-08T09:52:48.682Z,152255.69
2023-05-08T09:55:14.760Z,152325.50
2023-05-08T09:57:53.275Z,152433.44
2023-05-08T10:00:19.878Z,152446.09
2023-05-08T10:03:06.496Z,152551.50
2023-05-08T10:05:35.089Z,152588.34
2023-05-08T10:08:25.081Z,152639.16
2023-05-08T10:10:51.206Z,152678.50
2023-05-08T10:13:17.027Z,152719.22
2023-05-08T10:15:44.390Z,152757.31
2023-05-08T10:18:13.511Z,152800.56
2023-05-08T10:20:41.886Z,152815.81
2023-05-08T10:23:13.728Z,152817.06
2023-05-08T10:25:47.454Z,152766.22
2023-05-08T10:28:23.539Z,152752.25
2023-05-08T10:30:49.943Z,152759.91
2023-05-08T10:33:22.095Z,152725.59
2023-05-08T10:35:48.409Z,152673.44
2023-05-08T10:38:15.807Z,152664.53
2023-05-08T10:40:42.127Z,152616.28
2023-05-08T10:43:09.104Z,152578.19
2023-05-08T10:45:36.465Z,152612.44
2023-05-08T10:48:19.878Z,152603.59
2023-05-08T10:51:08.348Z,152611.19
2023-05-08T10:53:51.952Z,152618.81
2023-05-08T10:56:17.864Z,152613.75
2023-05-08T10:58:43.715Z,152594.66
2023-05-08T11:01:10.837Z,152560.41
2023-05-08T11:03:42.759Z,152594.66
2023-05-08T11:06:09.415Z,152650.59
2023-05-08T11:08:45.984Z,152669.66
2023-05-08T11:11:26.930Z,152682.31
2023-05-08T11:14:08.873Z,152686.16
2023-05-08T11:16:52.560Z,152669.66
2023-05-08T11:19:22.928Z,152672.19
2023-05-08T11:22:14.891Z,152628.97
2023-05-08T11:24:53.688Z,152651.88
2023-05-08T11:27:35.353Z,152637.88
2023-05-08T11:30:31.919Z,152692.50
2023-05-08T11:33:03.940Z,152738.25
2023-05-08T11:35:49.954Z,152759.91
2023-05-08T11:38:23.508Z,152762.44
2023-05-08T11:40:59.965Z,152780.22
2023-05-08T11:43:31.939Z,152749.72
2023-05-08T11:46:15.006Z,152758.63
2023-05-08T11:48:42.042Z,152749.72
2023-05-08T11:51:08.742Z,152750.97
2023-05-08T11:53:35.727Z,152750.97
2023-05-08T11:56:02.820Z,152734.47
2023-05-08T11:58:29.006Z,152720.47
2023-05-08T12:00:55.271Z,152704.00
2023-05-08T12:03:24.594Z,152670.91
2023-05-08T12:05:50.812Z,152663.25
2023-05-08T12:08:17.656Z,152675.97
2023-05-08T12:10:46.868Z,152650.59
2023-05-08T12:13:18.241Z,152646.75
2023-05-08T12:15:55.754Z,152595.97
2023-05-08T12:18:23.476Z,152597.25
2023-05-08T12:21:07.407Z,152593.41
2023-05-08T12:23:33.189Z,152626.44
2023-05-08T12:26:00.317Z,152623.91
2023-05-08T12:28:26.569Z,152669.66
2023-05-08T12:30:53.290Z,152612.44
2023-05-08T12:33:20.103Z,152681.03
2023-05-08T12:35:46.124Z,152664.53
2023-05-08T12:38:12.343Z,152607.38
2023-05-08T12:40:43.270Z,152649.28
2023-05-08T12:43:10.115Z,152648.00
2023-05-08T12:45:41.363Z,152683.59
2023-05-08T12:48:09.958Z,152709.06
2023-05-08T12:50:38.476Z,152698.88
2023-05-08T12:53:06.519Z,152762.44
2023-05-08T12:55:34.549Z,152790.38
2023-05-08T12:58:04.855Z,152794.16
2023-05-08T13:00:51.086Z,152726.84
2023-05-08T13:03:25.888Z,152728.13
2023-05-08T13:05:53.049Z,152696.34
2023-05-08T13:08:19.004Z,152679.78
2023-05-08T13:10:54.767Z,152716.66
2023-05-08T13:13:22.843Z,152701.41
2023-05-08T13:15:49.931Z,152748.44
2023-05-08T13:18:17.070Z,152734.47
2023-05-08T13:20:43.072Z,152740.84
2023-05-08T13:23:09.672Z,152734.47
2023-05-08T13:25:40.021Z,152761.16
2023-05-08T13:28:07.043Z,152770.03
2023-05-08T13:30:35.494Z,152768.78
2023-05-08T13:33:02.246Z,152808.16
2023-05-08T13:35:28.261Z,152775.09
2023-05-08T13:37:55.113Z,152796.75
2023-05-08T13:40:20.995Z,152822.16
2023-05-08T13:42:46.854Z,152825.94
2023-05-08T13:45:15.902Z,152842.47
2023-05-08T13:47:42.411Z,152860.25
2023-05-08T13:50:09.785Z,152811.94
2023-05-08T13:52:37.102Z,152836.13
2023-05-08T13:55:05.782Z,152889.53
2023-05-08T13:57:31.834Z,152879.34
2023-05-08T13:59:57.646Z,152892.06
2023-05-08T14:02:23.736Z,152911.13
2023-05-08T14:04:49.721Z,152920.00
2023-05-08T14:07:17.634Z,152925.09
2023-05-08T14:09:44.705Z,152914.91
2023-05-08T14:12:11.649Z,152934.00
2023-05-08T14:14:37.470Z,152961.97
2023-05-08T14:17:04.306Z,152993.81
2023-05-08T14:19:30.593Z,153039.56
2023-05-08T14:21:56.536Z,153005.22
2023-05-08T14:24:22.406Z,153051.03
2023-05-08T14:26:48.318Z,153066.28
2023-05-08T14:29:14.344Z,153052.31
2023-05-08T14:31:40.414Z,153056.09
2023-05-08T14:34:06.243Z,153056.09
2023-05-08T14:36:32.259Z,152992.50
2023-05-08T14:38:58.132Z,152979.81
2023-05-08T14:41:28.069Z,152982.38
2023-05-08T14:43:54.149Z,152949.25
2023-05-08T14:46:20.102Z,152963.25
2023-05-08T14:48:46.068Z,152964.50
2023-05-08T14:51:13.286Z,152972.16
2023-05-08T14:53:40.302Z,152984.91
2023-05-08T14:56:06.994Z,152949.25
2023-05-08T14:58:33.008Z,152969.63
2023-05-08T15:00:58.895Z,152965.81
2023-05-08T15:03:25.172Z,152996.34
2023-05-08T15:05:51.570Z,153005.22
2023-05-08T15:08:17.611Z,153016.69
2023-05-08T15:10:43.514Z,153011.63
2023-05-08T15:13:09.531Z,152984.91
2023-05-08T15:15:35.398Z,153030.69
2023-05-08T15:18:01.325Z,153053.56
2023-05-08T15:20:29.806Z,153077.72
2023-05-08T15:22:55.631Z,153124.78
2023-05-08T15:25:21.386Z,153118.41
2023-05-08T15:27:51.902Z,153100.59
2023-05-08T15:30:18.948Z,153120.97
2023-05-08T15:32:45.197Z,153152.75
2023-05-08T15:35:11.139Z,153169.28
2023-05-08T15:37:37.621Z,153222.75
2023-05-08T15:40:03.887Z,153288.94
2023-05-08T15:42:29.893Z,153353.81
2023-05-08T15:44:58.800Z,153446.78
2023-05-08T15:47:26.579Z,153459.50
2023-05-08T15:49:53.345Z,153342.38
2023-05-08T15:52:19.417Z,153216.38
2023-05-08T15:54:46.318Z,153166.75
2023-05-08T15:57:12.580Z,153143.88
2023-05-08T15:59:38.443Z,153142.59
2023-05-08T16:02:04.727Z,153148.94
2023-05-08T16:04:30.704Z,153115.88
2023-05-08T16:06:58.422Z,153062.44
2023-05-08T16:09:24.690Z,153067.56
2023-05-08T16:11:50.620Z,153073.91
2023-05-08T16:14:16.406Z,153021.75
2023-05-08T16:16:42.673Z,153067.56
2023-05-08T16:19:08.559Z,153178.22
2023-05-08T16:21:34.489Z,153188.38
2023-05-08T16:24:01.261Z,153217.63
2023-05-08T16:26:27.140Z,153161.66
2023-05-08T16:28:52.970Z,153140.06
2023-05-08T16:31:18.822Z,153138.78
2023-05-08T16:33:44.622Z,153113.31
2023-05-08T16:36:10.536Z,153115.88
2023-05-08T16:38:36.398Z,153051.03
2023-05-08T16:41:06.630Z,153026.84
2023-05-08T16:43:32.588Z,153040.84
2023-05-08T16:45:59.421Z,153028.09
2023-05-08T16:48:26.083Z,153052.31
2023-05-08T16:50:52.307Z,153104.44
2023-05-08T16:53:18.215Z,153119.66
2023-05-08T16:55:44.117Z,153187.09
2023-05-08T16:58:10.477Z,153269.84
2023-05-08T17:00:36.381Z,153344.94
2023-05-08T17:03:02.326Z,153332.19
2023-05-08T17:05:28.342Z,153249.50
2023-05-08T17:07:54.633Z,153194.75
2023-05-08T17:10:20.868Z,153224.03
2023-05-08T17:12:46.846Z,153193.47
2023-05-08T17:15:12.872Z,153184.56
2023-05-08T17:17:38.940Z,153145.13
2023-05-08T17:20:05.551Z,153174.41
2023-05-08T17:22:31.491Z,153156.59
2023-05-08T17:24:57.326Z,153115.88
2023-05-08T17:27:23.254Z,153109.53
2023-05-08T17:29:49.209Z,153057.38
2023-05-08T17:32:15.160Z,153019.22
2023-05-08T17:34:41.053Z,152965.81
2023-05-08T17:37:06.980Z,152935.25
2023-05-08T17:39:32.866Z,152916.19
2023-05-08T17:41:58.662Z,152912.38
2023-05-08T17:44:24.568Z,152920.00
2023-05-08T17:46:50.530Z,152879.34
2023-05-08T17:49:19.075Z,152836.13
2023-05-08T17:51:45.468Z,152799.28
2023-05-08T17:54:11.376Z,152809.44
2023-05-08T17:56:37.453Z,152801.81
2023-05-08T17:59:03.427Z,152763.69
2023-05-08T18:01:29.557Z,152743.38
2023-05-08T18:03:55.873Z,152735.72
2023-05-08T18:06:21.869Z,152757.31
2023-05-08T18:08:48.157Z,152747.19
2023-05-08T18:11:25.138Z,152759.91
2023-05-08T18:13:54.432Z,152698.88
2023-05-08T18:16:21.548Z,152658.19
2023-05-08T18:18:48.850Z,152695.03
2023-05-08T18:21:15.189Z,152649.28
2023-05-08T18:23:41.303Z,152650.59
2023-05-08T18:26:07.187Z,152646.75
2023-05-08T18:28:35.512Z,152659.47
2023-05-08T18:31:02.363Z,152663.25
2023-05-08T18:33:28.396Z,152620.09
2023-05-08T18:35:55.110Z,152616.28
2023-05-08T18:38:21.702Z,152635.34
2023-05-08T18:40:47.750Z,152613.75
2023-05-08T18:43:13.858Z,152608.66
2023-05-08T18:45:40.530Z,152594.66
2023-05-08T18:48:09.306Z,152575.63
2023-05-08T18:50:35.615Z,152568.00
2023-05-08T18:53:01.779Z,152550.25
2023-05-08T18:55:27.713Z,152536.25
2023-05-08T18:57:54.742Z,152561.69
2023-05-08T19:00:20.886Z,152515.94
2023-05-08T19:02:47.078Z,152533.72
2023-05-08T19:05:13.227Z,152526.13
2023-05-08T19:07:39.717Z,152517.22
2023-05-08T19:10:06.689Z,152499.44
2023-05-08T19:12:32.999Z,152481.66
2023-05-08T19:14:58.928Z,152512.16
2023-05-08T19:17:25.137Z,152513.41
2023-05-08T19:19:53.714Z,152481.66
2023-05-08T19:22:19.704Z,152475.31
2023-05-08T19:24:45.745Z,152456.28
2023-05-08T19:27:11.763Z,152509.63
2023-05-08T19:29:37.654Z,152485.47
2023-05-08T19:32:04.374Z,152441.03
2023-05-08T19:34:31.505Z,152446.09
2023-05-08T19:36:57.656Z,152455.03
2023-05-08T19:39:23.471Z,152428.34
2023-05-08T19:41:49.355Z,152429.59
2023-05-08T19:44:15.193Z,152409.28
2023-05-08T19:46:41.883Z,152397.84
2023-05-08T19:49:07.899Z,152395.28
2023-05-08T19:51:33.883Z,152358.47
2023-05-08T19:53:59.838Z,152364.84
2023-05-08T19:56:26.009Z,152372.44
2023-05-08T19:58:51.937Z,152368.63
2023-05-08T20:01:18.186Z,152363.56
2023-05-08T20:03:44.254Z,152363.56
2023-05-08T20:06:10.487Z,152371.16
2023-05-08T20:08:36.434Z,152376.22
2023-05-08T20:11:03.344Z,152368.63
2023-05-08T20:13:31.865Z,152361.03
2023-05-08T20:15:57.988Z,152345.81
2023-05-08T20:18:24.713Z,152324.19
2023-05-08T20:20:50.605Z,152335.63
2023-05-08T20:23:16.483Z,152324.19
2023-05-08T20:25:45.592Z,152330.56
2023-05-08T20:28:11.526Z,152312.78
2023-05-08T20:30:37.440Z,152296.28
2023-05-08T20:33:04.152Z,152286.13
2023-05-08T20:35:33.163Z,152297.56
2023-05-08T20:37:59.031Z,152302.63
2023-05-08T20:40:25.026Z,152303.88
2023-05-08T20:42:50.827Z,152295.03
2023-05-08T20:45:16.690Z,152301.38
2023-05-08T20:47:42.803Z,152293.75
2023-05-08T20:50:08.859Z,152315.31
2023-05-08T20:52:36.030Z,152295.03
2023-05-08T20:55:04.016Z,152270.94
2023-05-08T20:57:30.008Z,152282.31
2023-05-08T20:59:55.857Z,152279.78
2023-05-08T21:02:21.650Z,152291.22
2023-05-08T21:04:47.761Z,152296.28
2023-05-08T21:07:13.596Z,152293.75
2023-05-08T21:09:39.605Z,152312.78
2023-05-08T21:12:05.842Z,152292.50
2023-05-08T21:14:31.652Z,152279.78
2023-05-08T21:16:57.669Z,152278.53
2023-05-08T21:19:23.551Z,152229.03
2023-05-08T21:21:49.409Z,152229.03
2023-05-08T21:24:15.287Z,152236.66
2023-05-08T21:26:41.106Z,152227.75
2023-05-08T21:29:07.158Z,152235.41
2023-05-08T21:31:34.852Z,152213.81
2023-05-08T21:34:01.871Z,152226.50
2023-05-08T21:36:28.569Z,152213.81
2023-05-08T21:38:54.852Z,152222.72
2023-05-08T21:41:21.406Z,152221.44
2023-05-08T21:43:48.150Z,152241.72
2023-05-08T21:46:14.055Z,152217.66
2023-05-08T21:48:40.008Z,152216.38
2023-05-08T21:51:06.174Z,152232.81
2023-05-08T21:53:32.345Z,152234.09
2023-05-08T21:55:58.862Z,152225.22
2023-05-08T21:58:24.764Z,152229.03
2023-05-08T22:00:50.557Z,152225.22
2023-05-08T22:03:16.901Z,152194.78
2023-05-08T22:05:46.490Z,152212.53
2023-05-08T22:08:12.310Z,152227.75
2023-05-08T22:10:38.196Z,152208.75
2023-05-08T22:13:05.758Z,152203.69
2023-05-08T22:15:31.627Z,152202.41
2023-05-08T22:17:58.578Z,152217.66
2023-05-08T22:20:24.909Z,152179.53
2023-05-08T22:22:50.738Z,152187.19
2023-05-08T22:25:16.619Z,152187.19
2023-05-08T22:27:42.481Z,152204.94
2023-05-08T22:30:08.462Z,152215.06
2023-05-08T22:32:34.615Z,152203.69
2023-05-08T22:35:00.385Z,152196.03
2023-05-08T22:37:26.198Z,152188.44
2023-05-08T22:39:52.105Z,152190.97
2023-05-08T22:42:18.056Z,152174.47
2023-05-08T22:44:44.733Z,152170.69
2023-05-08T22:47:11.380Z,152159.25
2023-05-08T22:49:41.378Z,152189.72
2023-05-08T22:52:08.368Z,152178.28
2023-05-08T22:54:34.526Z,152155.44
2023-05-08T22:57:00.917Z,152152.91
2023-05-08T22:59:26.660Z,152145.34
2023-05-08T23:01:52.493Z,152160.50
2023-05-08T23:04:18.579Z,152175.75
2023-05-08T23:06:44.403Z,152171.94
2023-05-08T23:09:10.264Z,152203.69
2023-05-08T23:11:36.171Z,152223.97
2023-05-08T23:14:02.001Z,152193.50
2023-05-08T23:16:29.223Z,152197.31
2023-05-08T23:18:55.101Z,152202.41
2023-05-08T23:21:20.994Z,152198.63
2023-05-08T23:23:48.000Z,152215.06
2023-05-08T23:26:13.901Z,152184.66
2023-05-08T23:28:39.779Z,152184.66
2023-05-08T23:31:05.660Z,152185.91
2023-05-08T23:33:31.452Z,152190.97
2023-05-08T23:35:58.488Z,152173.22
2023-05-08T23:38:24.664Z,152155.44
2023-05-08T23:40:50.687Z,152189.72
2023-05-08T23:43:17.128Z,152197.31
2023-05-08T23:45:43.528Z,152183.38
2023-05-08T23:48:09.622Z,152188.44
2023-05-08T23:50:35.484Z,152165.63
2023-05-08T23:53:01.495Z,152179.53
2023-05-08T23:55:27.301Z,152169.41
2023-05-08T23:57:53.098Z,152199.88
